Time;durP1;ratioP1;P1;durP2;ratioP2;P2;SDS_P1;SDS_P2;PMS_P1;PMS_P2;Temp;Humidity;BMP_temperature;BMP_pressure;BME280_temperature;BME280_humidity;BME280_pressure;Samples;Min_cycle;Max_cycle;Signal;HPM_P1;HPM_P2
2022/08/10 00:01:24;;;;;;;1.08;0.45;;;;;;;-140.72;100.00;52315.78;5003143;28;20037;-68
2022/08/10 00:03:50;;;;;;;0.38;0.30;;;;;;;-140.72;100.00;52360.44;4995441;28;20025;-68
2022/08/10 00:06:16;;;;;;;0.95;0.50;;;;;;;-140.72;100.00;52325.94;4994266;28;20104;-68
2022/08/10 00:08:41;;;;;;;0.80;0.47;;;;;;;-140.72;100.00;52309.69;4995219;28;20073;-68
2022/08/10 00:11:07;;;;;;;3.17;0.60;;;;;;;-140.72;100.00;52321.88;4995783;28;20045;-68
2022/08/10 00:13:33;;;;;;;1.85;0.80;;;;;;;-140.72;100.00;52336.06;4996364;28;20029;-68
2022/08/10 00:15:58;;;;;;;0.50;0.50;;;;;;;-140.72;100.00;52364.47;4995927;28;20038;-68
2022/08/10 00:18:25;;;;;;;0.85;0.43;;;;;;;-140.72;100.00;52336.06;4995668;28;20022;-67
2022/08/10 00:20:51;;;;;;;0.52;0.32;;;;;;;-140.72;100.00;52338.09;4994786;28;20027;-68
2022/08/10 00:23:16;;;;;;;0.80;0.52;;;;;;;-140.72;100.00;52340.13;4995324;28;20038;-67
2022/08/10 00:25:42;;;;;;;0.55;0.40;;;;;;;-140.72;100.00;52354.34;4995408;28;20516;-66
2022/08/10 00:28:07;;;;;;;0.70;0.50;;;;;;;-140.72;100.00;52327.97;4998681;28;20040;-68
2022/08/10 00:30:32;;;;;;;0.40;0.30;;;;;;;-140.72;100.00;52392.88;4995639;28;20474;-68
2022/08/10 00:32:58;;;;;;;2.88;0.40;;;;;;;-140.72;100.00;52295.50;4995477;28;20113;-68
2022/08/10 00:35:23;;;;;;;1.90;0.65;;;;;;;-140.72;100.00;52342.16;4995486;28;20046;-68
2022/08/10 00:37:48;;;;;;;0.90;0.38;;;;;;;-140.72;100.00;52352.31;4995382;28;20073;-68
2022/08/10 00:40:14;;;;;;;0.40;0.30;;;;;;;-140.72;100.00;52346.22;4998228;28;20113;-68
2022/08/10 00:42:39;;;;;;;1.38;0.70;;;;;;;-140.72;100.00;52342.16;4999335;28;20034;-68
2022/08/10 00:45:05;;;;;;;0.55;0.40;;;;;;;-140.72;100.00;52366.50;4997757;28;20092;-67
2022/08/10 00:47:30;;;;;;;0.70;0.40;;;;;;;-140.72;100.00;52354.34;4998985;28;20034;-67
2022/08/10 00:49:56;;;;;;;0.47;0.40;;;;;;;-140.72;100.00;52346.22;4999286;28;20029;-68
2022/08/10 00:52:23;;;;;;;0.60;0.40;;;;;;;-140.72;100.00;52352.31;5000452;28;20026;-67
2022/08/10 00:54:49;;;;;;;0.90;0.68;;;;;;;-140.72;100.00;52360.44;5011031;28;20382;-68
2022/08/10 00:57:14;;;;;;;1.25;0.77;;;;;;;-140.72;100.00;52366.50;4998824;28;20026;-67
2022/08/10 00:59:40;;;;;;;0.70;0.40;;;;;;;-140.72;100.00;52330.00;4998626;28;20088;-67
2022/08/10 01:02:05;;;;;;;1.25;0.40;;;;;;;-140.72;100.00;52378.69;5014244;28;20038;-67
2022/08/10 01:04:31;;;;;;;0.60;0.30;;;;;;;-140.72;100.00;52360.44;4998889;28;20058;-68
2022/08/10 01:07:25;;;;;;;0.60;0.47;;;;;;;-140.72;100.00;52309.69;5000327;28;20026;-67
2022/08/10 01:10:05;;;;;;;3.88;0.55;;;;;;;-140.72;100.00;52388.84;5005221;28;20026;-67
2022/08/10 01:12:40;;;;;;;1.00;0.65;;;;;;;-140.72;100.00;52362.44;4987374;28;20467;-68
2022/08/10 01:15:29;;;;;;;0.50;0.40;;;;;;;-140.72;100.00;52344.19;4998695;28;20030;-67
2022/08/10 01:18:36;;;;;;;0.88;0.65;;;;;;;-140.72;100.00;52394.91;5010743;28;20042;-67
2022/08/10 01:21:22;;;;;;;0.68;0.45;;;;;;;-140.72;100.00;52382.75;4928029;28;20462;-67
2022/08/10 01:24:29;;;;;;;1.13;0.60;;;;;;;-140.72;100.00;52394.91;4998793;28;20053;-68
2022/08/10 01:27:03;;;;;;;0.85;0.55;;;;;;;-140.72;100.00;52364.47;5010493;28;20018;-68
2022/08/10 01:29:50;;;;;;;3.45;0.60;;;;;;;-140.72;100.00;52350.28;5008975;28;20030;-67
2022/08/10 01:32:23;;;;;;;0.82;0.55;;;;;;;-140.72;100.00;52334.03;4997888;28;20501;-67
2022/08/10 01:34:55;;;;;;;0.60;0.50;;;;;;;-140.72;100.00;52370.56;4997876;28;20049;-68
2022/08/10 01:37:25;;;;;;;0.60;0.40;;;;;;;-140.72;100.00;52380.72;4993784;28;20030;-68
2022/08/10 01:39:57;;;;;;;1.42;0.70;;;;;;;-140.72;100.00;52378.69;4999685;28;20037;-68
2022/08/10 01:42:24;;;;;;;0.73;0.50;;;;;;;-140.72;100.00;52368.53;5001183;28;20030;-67
2022/08/10 01:44:59;;;;;;;1.40;0.75;;;;;;;-140.72;100.00;52366.50;5012757;28;20363;-68
2022/08/10 01:50:23;;;;;;;0.82;0.68;;;;;;;-140.72;100.00;52374.63;4988417;28;20505;-68
2022/08/10 01:52:54;;;;;;;0.80;0.50;;;;;;;-140.72;100.00;52372.59;4996668;28;20036;-67
2022/08/10 01:55:21;;;;;;;1.17;0.70;;;;;;;-140.72;100.00;52368.53;4999008;28;20157;-67
2022/08/10 01:58:21;;;;;;;1.73;0.75;;;;;;;-140.72;100.00;52394.91;5015326;28;20030;-68
2022/08/10 02:00:49;;;;;;;;;;;;;;;-140.72;100.00;52382.75;4997846;28;20041;-67
2022/08/10 02:03:35;;;;;;;0.95;0.60;;;;;;;-140.72;100.00;52374.63;4997508;28;19914;-68
2022/08/10 02:06:03;;;;;;;1.83;0.68;;;;;;;-140.72;100.00;52370.56;4997332;28;20049;-67
2022/08/10 02:08:46;;;;;;;0.85;0.70;;;;;;;-140.72;100.00;52364.47;4996026;28;20034;-67
2022/08/10 02:11:14;;;;;;;0.85;0.52;;;;;;;-140.72;100.00;52392.88;4986208;28;20469;-67
2022/08/10 02:13:41;;;;;;;1.23;0.70;;;;;;;-140.72;100.00;52407.09;4996105;28;20077;-68
2022/08/10 02:16:09;;;;;;;2.33;0.95;;;;;;;-140.72;100.00;52382.75;4997182;28;20062;-67
2022/08/10 02:18:35;;;;;;;1.70;0.70;;;;;;;-140.72;100.00;52378.69;4997291;28;21527;-68
2022/08/10 02:21:04;;;;;;;0.80;0.50;;;;;;;-140.72;100.00;52390.84;4983004;28;20156;-67
2022/08/10 02:23:31;;;;;;;1.15;0.45;;;;;;;-140.72;100.00;52362.44;4995921;28;20033;-67
2022/08/10 02:25:59;;;;;;;1.20;0.88;;;;;;;-140.72;100.00;52398.97;4995354;28;20169;-68
2022/08/10 02:28:27;;;;;;;1.17;0.75;;;;;;;-140.72;100.00;52390.84;4997120;28;20034;-67
2022/08/10 02:30:54;;;;;;;0.90;0.60;;;;;;;-140.72;100.00;52390.84;4996627;28;20041;-68
2022/08/10 02:33:22;;;;;;;0.80;0.65;;;;;;;-140.72;100.00;52388.84;4994707;28;20102;-67
2022/08/10 02:36:02;;;;;;;1.30;0.75;;;;;;;-140.72;100.00;52382.75;5000719;28;20073;-68
2022/08/10 02:38:40;;;;;;;2.00;1.10;;;;;;;-140.72;100.00;52368.53;4994940;28;20034;-67
2022/08/10 02:41:29;;;;;;;2.13;1.10;;;;;;;-140.72;100.00;52378.69;5000149;28;20492;-67
2022/08/10 02:44:03;;;;;;;1.02;0.52;;;;;;;-140.72;100.00;52384.78;4996320;28;20053;-67
2022/08/10 02:46:38;;;;;;;1.02;0.63;;;;;;;-140.72;100.00;52392.88;4995368;28;20184;-68
2022/08/10 02:49:05;;;;;;;1.35;0.75;;;;;;;-140.72;100.00;52413.19;4995137;28;20028;-68
2022/08/10 02:51:43;;;;;;;1.30;0.90;;;;;;;-140.72;100.00;52394.91;4996134;28;20042;-68
2022/08/10 02:54:16;;;;;;;1.25;0.88;;;;;;;-140.72;100.00;52350.28;4996325;28;20037;-67
2022/08/10 02:56:50;;;;;;;1.05;0.73;;;;;;;-140.72;100.00;52423.31;4996352;28;20198;-67
2022/08/10 02:59:23;;;;;;;2.47;1.05;;;;;;;-140.72;100.00;52423.31;4996652;28;20477;-67
2022/08/10 03:01:53;;;;;;;1.15;0.80;;;;;;;-140.72;100.00;52392.88;4996153;28;20033;-68
2022/08/10 03:04:40;;;;;;;2.15;1.10;;;;;;;-140.72;100.00;52390.84;5000109;28;20096;-68
2022/08/10 03:07:10;;;;;;;1.30;0.90;;;;;;;-140.72;100.00;52398.97;5003894;28;20058;-67
2022/08/10 03:09:38;;;;;;;2.10;1.00;;;;;;;-140.72;100.00;52433.47;4991798;28;20023;-68
2022/08/10 03:12:07;;;;;;;7.85;1.13;;;;;;;-140.72;100.00;52380.72;4996378;28;20091;-67
2022/08/10 03:14:36;;;;;;;1.17;0.65;;;;;;;-140.72;100.00;52405.06;4996342;28;20022;-68
2022/08/10 03:17:03;;;;;;;3.17;0.95;;;;;;;-140.72;100.00;52382.75;4996608;28;20101;-68
2022/08/10 03:19:32;;;;;;;1.10;0.88;;;;;;;-140.72;100.00;52419.28;5001539;28;20033;-68
2022/08/10 03:21:58;;;;;;;1.48;0.90;;;;;;;-140.72;100.00;52386.81;4996168;28;20022;-68
2022/08/10 03:24:26;;;;;;;2.42;1.40;;;;;;;-140.72;100.00;52403.03;4995253;28;20094;-67
2022/08/10 03:26:53;;;;;;;1.67;0.98;;;;;;;-140.72;100.00;52415.22;4995623;28;20031;-67
2022/08/10 03:29:20;;;;;;;1.45;0.60;;;;;;;-140.72;100.00;52423.31;4995572;28;20054;-67
2022/08/10 03:31:47;;;;;;;1.75;1.05;;;;;;;-140.72;100.00;52431.44;4994397;28;20026;-67
2022/08/10 03:34:15;;;;;;;2.05;1.17;;;;;;;-140.72;100.00;52435.50;4982439;28;20061;-68
2022/08/10 03:36:42;;;;;;;1.85;0.93;;;;;;;-140.72;100.00;52398.97;4995415;28;20033;-67
2022/08/10 03:39:08;;;;;;;1.70;1.10;;;;;;;-140.72;100.00;52425.34;4995724;28;20026;-67
2022/08/10 03:41:37;;;;;;;2.75;0.98;;;;;;;-140.72;100.00;52461.88;4995630;28;20034;-67
2022/08/10 03:44:05;;;;;;;2.10;1.40;;;;;;;-140.72;100.00;52411.16;5002083;28;20030;-68
2022/08/10 03:46:33;;;;;;;2.25;1.27;;;;;;;-140.72;100.00;52415.22;5003659;28;20018;-68
2022/08/10 03:49:01;;;;;;;1.48;0.90;;;;;;;-140.72;100.00;52405.06;4994120;28;20125;-67
2022/08/10 03:51:27;;;;;;;1.73;1.20;;;;;;;-140.72;100.00;52411.16;4993757;28;20109;-68
2022/08/10 03:53:53;;;;;;;2.42;1.38;;;;;;;-140.72;100.00;52419.28;4998580;28;20034;-67
2022/08/10 03:56:19;;;;;;;1.75;1.10;;;;;;;-140.72;100.00;52443.63;5003971;28;20018;-68
2022/08/10 03:58:46;;;;;;;1.27;0.82;;;;;;;-140.72;100.00;52433.47;4993953;28;20030;-67
2022/08/10 04:01:14;;;;;;;1.33;0.70;;;;;;;-140.72;100.00;52435.50;4995050;28;20030;-68
2022/08/10 04:03:39;;;;;;;1.85;1.10;;;;;;;-140.72;100.00;52449.72;5000113;28;20030;-67
2022/08/10 04:06:05;;;;;;;1.77;1.23;;;;;;;-140.72;100.00;52427.38;4990555;28;20035;-68
2022/08/10 04:08:31;;;;;;;1.83;1.42;;;;;;;-140.72;100.00;52401.00;4993182;28;20022;-67
2022/08/10 04:10:56;;;;;;;2.03;1.27;;;;;;;-140.72;100.00;52388.84;4995050;28;20023;-68
2022/08/10 04:13:22;;;;;;;3.45;1.30;;;;;;;-140.72;100.00;52427.38;4997014;28;20037;-67
2022/08/10 04:15:48;;;;;;;2.35;1.65;;;;;;;-140.72;100.00;52439.56;4999014;28;20054;-68
2022/08/10 04:18:13;;;;;;;3.22;1.70;;;;;;;-140.72;100.00;52463.91;4998490;28;20113;-72
2022/08/10 04:20:48;;;;;;;2.72;1.73;;;;;;;-140.72;100.00;52484.19;4996342;28;20037;-73
2022/08/10 04:23:27;;;;;;;1.83;1.25;;;;;;;-140.72;100.00;52390.84;4996657;28;20105;-70
2022/08/10 04:25:53;;;;;;;2.05;1.40;;;;;;;-140.72;100.00;52467.97;4996627;28;20034;-71
2022/08/10 04:28:19;;;;;;;3.90;1.80;;;;;;;-140.72;100.00;52451.72;4998184;28;20038;-72
2022/08/10 04:30:46;;;;;;;2.00;1.30;;;;;;;-140.72;100.00;52457.81;4996405;28;20042;-71
2022/08/10 04:33:14;;;;;;;2.58;1.42;;;;;;;-140.72;100.00;52474.06;4997064;28;20030;-72
2022/08/10 04:35:41;;;;;;;1.80;1.08;;;;;;;-140.72;100.00;52435.50;4995482;28;20097;-72
2022/08/10 04:38:08;;;;;;;2.50;1.20;;;;;;;-140.72;100.00;52427.38;5003998;28;20030;-70
2022/08/10 04:40:33;;;;;;;1.85;1.30;;;;;;;-140.72;100.00;52451.72;5002708;28;20049;-71
2022/08/10 04:43:02;;;;;;;2.60;1.60;;;;;;;-140.72;100.00;52459.84;4998747;28;20038;-72
2022/08/10 04:45:27;;;;;;;2.47;1.35;;;;;;;-140.72;100.00;52455.78;4996243;28;20478;-73
2022/08/10 04:47:52;;;;;;;2.42;1.30;;;;;;;-140.72;100.00;52415.22;4995859;28;20030;-73
2022/08/10 04:50:18;;;;;;;2.42;1.30;;;;;;;-140.72;100.00;52433.47;5004773;28;20112;-73
2022/08/10 04:52:43;;;;;;;2.65;1.65;;;;;;;-140.72;100.00;52431.44;5006785;28;20030;-73
2022/08/10 04:55:08;;;;;;;3.63;1.77;;;;;;;-140.72;100.00;52411.16;5008678;28;20490;-72
2022/08/10 04:57:34;;;;;;;2.75;1.70;;;;;;;-140.72;100.00;52419.28;5006331;28;20508;-74
2022/08/10 04:59:59;;;;;;;2.65;1.80;;;;;;;-140.72;100.00;52423.31;5007139;28;20504;-73
2022/08/10 05:02:25;;;;;;;4.95;1.67;;;;;;;-140.72;100.00;52465.94;5009755;28;20125;-73
2022/08/10 05:04:50;;;;;;;2.95;1.40;;;;;;;-140.72;100.00;52447.69;5020792;28;20053;-73
2022/08/10 05:07:16;;;;;;;3.35;1.83;;;;;;;-140.72;100.00;52388.84;5015175;28;20018;-73
2022/08/10 05:09:42;;;;;;;2.50;1.80;;;;;;;-140.72;100.00;52461.88;5020298;28;20037;-73
2022/08/10 05:12:08;;;;;;;2.83;1.80;;;;;;;-140.72;100.00;52431.44;5000954;28;20034;-73
2022/08/10 05:14:33;;;;;;;3.08;1.77;;;;;;;-140.72;100.00;52411.16;4999546;28;20038;-73
2022/08/10 05:16:59;;;;;;;2.92;1.80;;;;;;;-140.72;100.00;52429.41;5000452;28;20514;-73
2022/08/10 05:19:25;;;;;;;2.50;1.50;;;;;;;-140.72;100.00;52386.81;5002866;28;20030;-73
2022/08/10 05:21:50;;;;;;;2.47;1.58;;;;;;;-140.72;100.00;52407.09;5000761;28;20033;-73
2022/08/10 05:24:16;;;;;;;2.97;1.55;;;;;;;-140.72;100.00;52433.47;5001100;28;20134;-73
2022/08/10 05:26:41;;;;;;;3.38;2.25;;;;;;;-140.72;100.00;52415.22;5003035;28;20470;-75
2022/08/10 05:29:06;;;;;;;2.83;2.08;;;;;;;-140.72;100.00;52431.44;5010054;28;20529;-73
2022/08/10 05:31:32;;;;;;;3.42;2.08;;;;;;;-140.72;100.00;52449.72;5005063;28;20033;-75
2022/08/10 05:33:57;;;;;;;2.70;1.98;;;;;;;-140.72;100.00;52394.91;5008600;28;20062;-73
2022/08/10 05:36:23;;;;;;;3.38;1.98;;;;;;;-140.72;100.00;52386.81;4999423;28;20398;-73
2022/08/10 05:38:49;;;;;;;2.40;1.50;;;;;;;-140.72;100.00;52405.06;5003854;28;20035;-74
2022/08/10 05:41:16;;;;;;;3.47;2.03;;;;;;;-140.72;100.00;52407.09;5016819;28;20113;-76
2022/08/10 05:43:42;;;;;;;3.45;2.22;;;;;;;-140.72;100.00;52409.13;5016051;28;20114;-70
2022/08/10 05:46:08;;;;;;;3.45;2.72;;;;;;;-140.72;100.00;52394.91;4998407;28;20434;-74
2022/08/10 05:48:35;;;;;;;3.78;2.40;;;;;;;-140.72;100.00;52394.91;5010293;28;20038;-73
2022/08/10 05:51:01;;;;;;;6.95;2.58;;;;;;;-140.72;100.00;52415.22;4996848;28;20108;-73
2022/08/10 05:53:26;;;;;;;5.85;2.97;;;;;;;-140.72;100.00;52394.91;4996418;28;20034;-75
2022/08/10 05:56:23;;;;;;;3.72;2.17;;;;;;;-140.72;100.00;52388.84;4994962;28;20446;-80
2022/08/10 05:59:34;;;;;;;3.38;2.10;;;;;;;-140.72;100.00;52386.81;4998809;28;20042;-73
2022/08/10 06:02:17;;;;;;;3.88;2.58;;;;;;;-140.72;100.00;52463.91;4986890;28;20054;-75
2022/08/10 06:05:15;;;;;;;4.38;2.33;;;;;;;-140.72;100.00;52394.91;5018692;28;20072;-73
2022/08/10 06:07:58;;;;;;;3.22;2.28;;;;;;;-140.72;100.00;52392.88;4982785;28;20035;-70
2022/08/10 06:10:24;;;;;;;3.55;2.30;;;;;;;-140.72;100.00;52405.06;4997077;28;20022;-70
2022/08/10 06:14:59;;;;;;;4.03;2.67;;;;;;;-140.72;100.00;52358.41;4996424;28;20114;-74
2022/08/10 06:15:38;;;;;;;2.53;1.80;;;;;;;-140.72;100.00;52386.81;4997569;28;20043;-74
2022/08/10 06:18:05;;;;;;;3.88;2.22;;;;;;;-140.72;100.00;52409.13;4997119;28;20037;-74
2022/08/10 06:20:31;;;;;;;3.80;2.28;;;;;;;-140.72;100.00;52407.09;4999348;28;20031;-74
2022/08/10 06:23:00;;;;;;;3.05;2.30;;;;;;;-140.72;100.00;52376.66;4998184;28;20034;-72
2022/08/10 06:25:30;;;;;;;3.20;2.10;;;;;;;-140.72;100.00;52374.63;4998378;28;20066;-73
2022/08/10 06:27:57;;;;;;;4.10;1.95;;;;;;;-140.72;100.00;52354.34;5006132;28;20019;-73
2022/08/10 06:30:25;;;;;;;3.15;1.88;;;;;;;-140.72;100.00;52338.09;5001802;28;20493;-73
2022/08/10 06:32:54;;;;;;;5.40;3.03;;;;;;;-140.72;100.00;52360.44;5000013;28;20401;-74
2022/08/10 06:35:21;;;;;;;3.67;2.40;;;;;;;-140.72;100.00;52380.72;5001868;28;20046;-72
2022/08/10 06:37:48;;;;;;;7.47;2.20;;;;;;;-140.72;100.00;52358.41;5002487;28;20030;-72
2022/08/10 06:40:14;;;;;;;3.80;2.00;;;;;;;-140.72;100.00;52376.66;4995788;28;20038;-72
2022/08/10 06:42:43;;;;;;;3.05;2.00;;;;;;;-140.72;100.00;52356.38;5002790;28;20030;-73
2022/08/10 06:45:12;;;;;;;5.05;1.90;;;;;;;-140.72;100.00;52374.63;5006720;28;20027;-73
2022/08/10 06:47:48;;;;;;;4.05;2.05;;;;;;;-140.72;100.00;52297.53;5002647;28;20026;-72
2022/08/10 06:50:18;;;;;;;2.80;1.63;;;;;;;-140.72;100.00;52319.84;5005130;28;20054;-67
2022/08/10 06:52:48;;;;;;;6.30;2.38;;;;;;;-140.72;100.00;52378.69;5000992;28;20026;-67
2022/08/10 06:55:14;;;;;;;4.47;1.30;;;;;;;-140.72;100.00;52354.34;5013571;28;20027;-67
2022/08/10 06:57:41;;;;;;;3.20;1.70;;;;;;;-140.72;100.00;52340.13;4997366;28;20062;-67
2022/08/10 07:00:08;;;;;;;2.42;1.70;;;;;;;-140.72;100.00;52360.44;4996646;28;20038;-67
2022/08/10 07:02:56;;;;;;;4.53;2.20;;;;;;;-140.72;100.00;52338.09;4995701;28;20377;-65
2022/08/10 07:05:24;;;;;;;5.65;2.22;;;;;;;-140.72;100.00;52344.19;4995908;28;20030;-66
2022/08/10 07:07:54;;;;;;;3.58;1.95;;;;;;;-140.72;100.00;52303.59;4996032;28;20121;-67
2022/08/10 07:10:22;;;;;;;4.47;1.95;;;;;;;-140.72;100.00;52332.03;4996142;28;20490;-66
2022/08/10 07:12:50;;;;;;;3.40;2.20;;;;;;;-140.72;100.00;52321.88;5000767;28;20064;-67
2022/08/10 07:15:17;;;;;;;3.50;1.98;;;;;;;-140.72;100.00;52321.88;4999359;28;20073;-70
2022/08/10 07:17:43;;;;;;;4.90;1.70;;;;;;;-140.72;100.00;52342.16;5000603;28;20049;-68
2022/08/10 07:20:15;;;;;;;3.00;1.95;;;;;;;-140.72;100.00;52327.97;4998474;28;20034;-68
2022/08/10 07:22:43;;;;;;;4.78;1.95;;;;;;;-140.72;100.00;52330.00;4995692;28;20099;-67
2022/08/10 07:25:10;;;;;;;2.88;1.75;;;;;;;-140.72;100.00;52332.03;5002354;28;20030;-71
2022/08/10 07:27:38;;;;;;;2.90;2.05;;;;;;;-140.72;100.00;52338.09;5000120;28;20030;-73
2022/08/10 07:30:04;;;;;;;3.60;1.83;;;;;;;-140.72;100.00;52297.53;5010963;28;20100;-72
2022/08/10 07:32:32;;;;;;;3.20;1.92;;;;;;;-140.72;100.00;52323.91;4998046;28;20026;-70
2022/08/10 07:34:59;;;;;;;2.85;2.05;;;;;;;-140.72;100.00;52297.53;4998550;28;20101;-71
2022/08/10 07:37:30;;;;;;;2.58;1.92;;;;;;;-140.72;100.00;52334.03;4999166;28;20085;-74
2022/08/10 07:39:57;;;;;;;3.08;1.83;;;;;;;-140.72;100.00;52334.03;4994068;28;20084;-73
2022/08/10 07:42:26;;;;;;;2.60;1.83;;;;;;;-140.72;100.00;52281.28;4994029;28;20031;-72
2022/08/10 07:44:51;;;;;;;3.38;1.88;;;;;;;-140.72;100.00;52263.03;5016638;28;20578;-71
2022/08/10 07:47:38;;;;;;;2.20;1.23;;;;;;;-140.72;100.00;52295.50;5009581;28;20046;-71
2022/08/10 07:50:07;;;;;;;2.60;1.70;;;;;;;-140.72;100.00;52277.22;4997050;28;20125;-72
2022/08/10 07:52:36;;;;;;;2.78;1.60;;;;;;;-140.72;100.00;52283.31;4995106;28;20044;-70
2022/08/10 07:55:02;;;;;;;2.15;1.50;;;;;;;-140.72;100.00;52307.66;5015469;28;20489;-70
2022/08/10 07:57:32;;;;;;;4.22;1.92;;;;;;;-140.72;100.00;52291.44;5021849;28;20030;-71
2022/08/10 08:00:00;;;;;;;;;;;;;;;-140.72;100.00;52258.97;5024110;28;20119;-69
2022/08/10 08:02:40;;;;;;;3.08;1.60;;;;;;;-140.72;100.00;52254.91;5006464;28;19914;-70
2022/08/10 08:05:10;;;;;;;;;;;;;;;-140.72;100.00;52283.31;5007056;28;20042;-70
2022/08/10 08:07:38;;;;;;;2.53;1.75;;;;;;;-140.72;100.00;52321.88;5021360;28;19932;-70
2022/08/10 08:10:05;;;;;;;2.90;1.70;;;;;;;-140.72;100.00;52254.91;5009461;28;20030;-70
2022/08/10 08:12:32;;;;;;;3.15;2.10;;;;;;;-140.72;100.00;52263.03;5006516;28;20045;-70
2022/08/10 08:14:59;;;;;;;2.58;1.65;;;;;;;-140.72;100.00;52254.91;5007544;28;20037;-70
2022/08/10 08:17:25;;;;;;;2.47;1.70;;;;;;;-140.72;100.00;52238.69;5000817;28;20048;-71
2022/08/10 08:19:54;;;;;;;2.45;1.55;;;;;;;-140.72;100.00;52224.47;5020141;28;20030;-70
2022/08/10 08:22:21;;;;;;;2.00;1.40;;;;;;;-140.72;100.00;52226.50;5005151;28;20030;-70
2022/08/10 08:24:49;;;;;;;2.25;1.20;;;;;;;-140.72;100.00;52194.03;5008408;28;20034;-70
2022/08/10 08:27:18;;;;;;;1.90;1.15;;;;;;;-140.72;100.00;52196.06;5022175;28;20034;-70
2022/08/10 08:29:45;;;;;;;2.00;1.48;;;;;;;-140.72;100.00;52202.16;5005562;28;20019;-70
2022/08/10 08:32:14;;;;;;;1.75;1.20;;;;;;;-140.72;100.00;52189.97;5007234;28;20041;-71
2022/08/10 08:34:42;;;;;;;4.00;1.23;;;;;;;-140.72;100.00;52137.22;5007695;28;20046;-71
2022/08/10 08:37:09;;;;;;;3.13;1.38;;;;;;;-140.72;100.00;52163.59;5008023;28;20031;-70
2022/08/10 08:39:35;;;;;;;3.55;1.88;;;;;;;-140.72;100.00;52192.00;5008749;28;20041;-70
2022/08/10 08:42:46;;;;;;;2.95;1.50;;;;;;;-140.72;100.00;52118.97;5009427;28;20034;-70
2022/08/10 08:45:24;;;;;;;3.03;1.42;;;;;;;-140.72;100.00;52135.19;4992675;28;20045;-70
2022/08/10 08:48:08;;;;;;;2.58;1.60;;;;;;;-140.72;100.00;52121.00;5017057;28;20034;-70
2022/08/10 08:50:55;;;;;;;1.23;0.80;;;;;;;-140.72;100.00;52070.28;5012964;28;20168;-70
2022/08/10 08:53:32;;;;;;;2.10;1.38;;;;;;;-140.72;100.00;52088.53;4996467;28;20370;-70
2022/08/10 08:56:03;;;;;;;4.55;1.40;;;;;;;-140.72;100.00;52082.44;4998512;28;20126;-69
2022/08/10 08:58:41;;;;;;;2.83;1.00;;;;;;;-140.72;100.00;52086.50;5009781;28;20397;-69
2022/08/10 09:01:22;;;;;;;1.45;0.90;;;;;;;-140.72;0.00;52045.94;4997665;28;20030;-70
2022/08/10 09:04:01;;;;;;;2.03;1.45;;;;;;;-140.72;0.00;52062.16;5000325;28;20033;-70
2022/08/10 09:07:07;;;;;;;1.20;0.70;;;;;;;-140.72;0.00;51968.81;5002806;28;20057;-70
2022/08/10 09:09:59;;;;;;;1.98;0.93;;;;;;;-140.72;0.00;51985.06;4997733;28;20033;-71
2022/08/10 09:12:42;;;;;;;1.65;0.73;;;;;;;-140.72;0.00;51964.78;5002998;28;20026;-71
2022/08/10 09:15:15;;;;;;;1.50;0.73;;;;;;;-140.72;0.00;51962.75;4997453;28;20061;-71
2022/08/10 09:18:20;;;;;;;0.98;0.52;;;;;;;-140.72;0.00;51903.91;4997906;28;20541;-71
2022/08/10 09:20:50;;;;;;;2.92;0.70;;;;;;;-140.72;0.00;51912.03;4988420;28;20046;-70
2022/08/10 09:23:18;;;;;;;0.73;0.50;;;;;;;-140.72;0.00;51910.00;5021135;28;20398;-70
2022/08/10 09:25:53;;;;;;;2.00;0.70;;;;;;;-140.72;0.00;51899.84;5012753;28;20608;-70
2022/08/10 09:28:30;;;;;;;0.95;0.52;;;;;;;-140.72;0.00;51871.44;4998883;28;20501;-70
2022/08/10 09:31:05;;;;;;;1.27;0.38;;;;;;;-140.72;0.00;51857.25;4997518;28;20030;-70
2022/08/10 09:33:44;;;;;;;0.95;0.50;;;;;;;-140.72;0.00;51867.38;5002725;28;20073;-68
2022/08/10 09:36:32;;;;;;;1.85;0.63;;;;;;;-140.72;0.00;51814.63;5026738;28;20101;-68
2022/08/10 09:39:16;;;;;;;1.83;0.70;;;;;;;-140.72;0.00;51830.88;5011433;28;20018;-67
2022/08/10 09:41:56;;;;;;;2.65;0.68;;;;;;;-140.72;0.00;51806.53;5011341;28;20045;-68
2022/08/10 09:44:38;;;;;;;2.70;0.60;;;;;;;-140.72;0.00;51786.22;5021905;28;20033;-69
2022/08/10 09:47:32;;;;;;;1.27;0.77;;;;;;;-140.72;0.00;51761.88;5016708;28;20038;-68
2022/08/10 09:50:16;;;;;;;3.50;0.57;;;;;;;-140.72;0.00;51755.81;5015592;28;20026;-69
2022/08/10 09:53:23;;;;;;;1.15;0.38;;;;;;;-140.72;0.00;51711.16;5041825;28;20037;-69
2022/08/10 09:56:06;;;;;;;0.93;0.35;;;;;;;-140.72;0.00;51699.00;5013023;28;20030;-69
2022/08/10 09:58:48;;;;;;;0.88;0.47;;;;;;;-140.72;0.00;51715.22;5013263;28;20528;-68
2022/08/10 10:01:32;;;;;;;1.00;0.47;;;;;;;-140.72;0.00;51664.50;5014018;28;20037;-72
2022/08/10 10:04:13;;;;;;;0.40;0.20;;;;;;;-140.72;0.00;51701.03;5003926;28;20026;-72
2022/08/10 10:06:50;;;;;;;1.05;0.30;;;;;;;-140.72;0.00;51668.56;5005217;28;20038;-72
2022/08/10 10:09:35;;;;;;;3.90;0.32;;;;;;;-140.72;0.00;51640.16;5009149;28;20034;-70
2022/08/10 10:12:09;;;;;;;2.38;0.35;;;;;;;-140.72;0.00;51609.72;5005738;28;20034;-72
2022/08/10 10:17:56;;;;;;;0.88;0.20;;;;;;;-140.72;0.00;51583.34;4999569;28;20044;-69
2022/08/10 10:20:43;;;;;;;1.88;0.75;;;;;;;-140.72;0.00;51632.03;5000530;28;20032;-68
2022/08/10 10:23:14;;;;;;;2.97;0.20;;;;;;;-140.72;0.00;51597.56;5000213;28;20431;-69
2022/08/10 10:26:07;;;;;;;0.75;0.22;;;;;;;-140.72;0.00;51611.75;5002466;28;20045;-69
2022/08/10 10:28:50;;;;;;;1.10;0.35;;;;;;;-140.72;0.00;51546.84;5001301;28;20512;-69
2022/08/10 10:31:36;;;;;;;0.60;0.30;;;;;;;-140.72;0.00;51508.28;5002623;28;20548;-69
2022/08/10 10:34:13;;;;;;;0.28;0.20;;;;;;;-140.72;0.00;51528.59;5002351;28;20466;-69
2022/08/10 10:36:44;;;;;;;1.85;0.47;;;;;;;-140.72;0.00;51506.25;5000749;28;20030;-70
2022/08/10 10:39:15;;;;;;;0.80;0.30;;;;;;;-140.72;0.00;51530.59;4999878;28;20046;-71
2022/08/10 10:41:53;;;;;;;1.25;0.20;;;;;;;-140.72;0.00;51540.75;5001399;28;20030;-70
2022/08/10 10:45:06;;;;;;;0.20;0.10;;;;;;;-140.72;0.00;51483.94;5000570;28;20045;-71
2022/08/10 10:47:50;;;;;;;0.35;0.10;;;;;;;-140.72;0.00;51477.88;4962031;28;20039;-69
2022/08/10 10:50:42;;;;;;;0.70;0.20;;;;;;;-140.72;0.00;51453.53;4980623;28;20042;-70
2022/08/10 10:53:20;;;;;;;0.90;0.10;;;;;;;-140.72;0.00;51477.88;4996403;28;20046;-69
2022/08/10 10:55:55;;;;;;;0.53;0.20;;;;;;;-140.72;0.00;51465.69;4999917;28;20026;-68
2022/08/10 10:58:57;;;;;;;0.95;0.40;;;;;;;-140.72;0.00;51453.53;5001449;28;20092;-69
2022/08/10 11:02:00;;;;;;;12.10;1.48;;;;;;;-140.72;0.00;51417.00;5001606;28;20033;-69
2022/08/10 11:04:39;;;;;;;0.10;0.10;;;;;;;-140.72;0.00;51386.56;4992676;28;20022;-68
2022/08/10 11:07:18;;;;;;;0.90;0.20;;;;;;;-140.72;0.00;51421.06;4998803;28;20121;-68
2022/08/10 11:10:08;;;;;;;0.32;0.17;;;;;;;-140.72;0.00;51459.59;5006787;28;20398;-68
2022/08/10 11:13:13;;;;;;;0.68;0.13;;;;;;;-140.72;0.00;51425.13;4993915;28;20389;-69
2022/08/10 11:15:47;;;;;;;1.40;0.30;;;;;;;-140.72;0.00;51343.97;4984583;28;20527;-69
2022/08/10 11:18:25;;;;;;;1.30;0.35;;;;;;;-140.72;0.00;51335.88;4998963;28;20033;-71
2022/08/10 11:21:00;;;;;;;2.10;0.20;;;;;;;-140.72;0.00;51313.53;4998912;28;20060;-68
2022/08/10 11:23:44;;;;;;;0.30;0.20;;;;;;;-140.72;0.00;51350.06;4998945;28;20042;-69
2022/08/10 11:26:24;;;;;;;0.55;0.20;;;;;;;-140.72;0.00;51376.44;4997221;28;20073;-69
2022/08/10 11:29:23;;;;;;;0.63;0.30;;;;;;;-140.72;0.00;51331.81;4990572;28;20018;-69
2022/08/10 11:32:01;;;;;;;2.50;0.30;;;;;;;-140.72;0.00;51311.53;5009152;28;20041;-67
2022/08/10 11:34:35;;;;;;;0.60;0.20;;;;;;;-140.72;0.00;51275.00;5000931;28;20462;-67
2022/08/10 11:37:26;;;;;;;0.70;0.20;;;;;;;-140.72;0.00;51303.41;4999649;28;20027;-67
2022/08/10 11:40:07;;;;;;;1.95;0.22;;;;;;;-140.72;0.00;51291.22;4996313;28;20151;-65
2022/08/10 11:42:57;;;;;;;0.52;0.25;;;;;;;-140.72;0.00;51309.50;4995107;28;20034;-65
2022/08/10 11:45:34;;;;;;;0.30;0.20;;;;;;;-140.72;0.00;51248.63;4994937;28;20034;-68
2022/08/10 11:48:17;;;;;;;0.35;0.10;;;;;;;-140.72;0.00;51214.16;4995254;28;20034;-66